sensor_id;sensor_type;location;lat;lon;timestamp;pressure;altitude;pressure_sealevel;temperature;humidity
4469;BME280;2247;42.666;23.292;2023-03-20T00:01:55;94695.75;;;11.83;49.24
4469;BME280;2247;42.666;23.292;2023-03-20T00:04:24;94698.91;;;11.85;50.03
4469;BME280;2247;42.666;23.292;2023-03-20T00:06:51;94693.63;;;11.85;50.42
4469;BME280;2247;42.666;23.292;2023-03-20T00:09:18;94694.66;;;11.94;51.39
4469;BME280;2247;42.666;23.292;2023-03-20T00:11:47;94668.03;;;11.86;50.42
4469;BME280;2247;42.666;23.292;2023-03-20T00:14:19;94690.44;;;11.93;51.04
4469;BME280;2247;42.666;23.292;2023-03-20T00:16:49;94687.28;;;11.96;51.26
4469;BME280;2247;42.666;23.292;2023-03-20T00:19:18;94682.47;;;11.98;50.80
4469;BME280;2247;42.666;23.292;2023-03-20T00:21:46;94683.28;;;11.99;50.43
4469;BME280;2247;42.666;23.292;2023-03-20T00:24:15;94690.41;;;11.98;50.88
4469;BME280;2247;42.666;23.292;2023-03-20T00:26:43;94686.19;;;12.02;51.21
4469;BME280;2247;42.666;23.292;2023-03-20T00:29:16;94680.09;;;11.97;50.13
4469;BME280;2247;42.666;23.292;2023-03-20T00:31:45;94682.84;;;11.76;49.16
4469;BME280;2247;42.666;23.292;2023-03-20T00:34:14;94679.47;;;11.61;49.78
4469;BME280;2247;42.666;23.292;2023-03-20T00:36:41;94685.03;;;11.44;49.37
4469;BME280;2247;42.666;23.292;2023-03-20T00:39:10;94690.06;;;11.45;51.36
4469;BME280;2247;42.666;23.292;2023-03-20T00:41:41;94670.03;;;11.29;50.26
4469;BME280;2247;42.666;23.292;2023-03-20T00:44:18;94670.63;;;11.06;51.93
4469;BME280;2247;42.666;23.292;2023-03-20T00:46:47;94678.53;;;10.96;49.66
4469;BME280;2247;42.666;23.292;2023-03-20T00:49:15;94678.28;;;10.97;49.67
4469;BME280;2247;42.666;23.292;2023-03-20T00:51:42;94672.22;;;10.87;49.89
4469;BME280;2247;42.666;23.292;2023-03-20T00:54:14;94671.44;;;10.71;51.20
4469;BME280;2247;42.666;23.292;2023-03-20T00:56:43;94675.91;;;10.81;52.19
4469;BME280;2247;42.666;23.292;2023-03-20T00:59:16;94670.63;;;11.06;52.14
4469;BME280;2247;42.666;23.292;2023-03-20T01:01:44;94669.53;;;11.22;52.17
4469;BME280;2247;42.666;23.292;2023-03-20T01:04:14;94667.66;;;11.33;52.10
4469;BME280;2247;42.666;23.292;2023-03-20T01:06:42;94637.84;;;11.32;51.05
4469;BME280;2247;42.666;23.292;2023-03-20T01:09:11;94665.25;;;11.47;50.85
4469;BME280;2247;42.666;23.292;2023-03-20T01:11:39;94660.47;;;11.54;51.55
4469;BME280;2247;42.666;23.292;2023-03-20T01:14:12;94648.09;;;11.44;49.39
4469;BME280;2247;42.666;23.292;2023-03-20T01:16:40;94654.16;;;11.44;51.26
4469;BME280;2247;42.666;23.292;2023-03-20T01:19:10;94650.94;;;11.58;51.26
4469;BME280;2247;42.666;23.292;2023-03-20T01:21:37;94649.09;;;11.58;50.90
4469;BME280;2247;42.666;23.292;2023-03-20T01:24:05;94647.25;;;11.59;51.46
4469;BME280;2247;42.666;23.292;2023-03-20T01:26:35;94629.91;;;11.48;50.51
4469;BME280;2247;42.666;23.292;2023-03-20T01:29:03;94643.56;;;11.60;51.04
4469;BME280;2247;42.666;23.292;2023-03-20T01:31:30;94649.06;;;11.63;51.16
4469;BME280;2247;42.666;23.292;2023-03-20T01:33:58;94651.97;;;11.62;50.83
4469;BME280;2247;42.666;23.292;2023-03-20T01:36:25;94647.75;;;11.66;50.84
4469;BME280;2247;42.666;23.292;2023-03-20T01:38:54;94638.03;;;11.61;50.20
4469;BME280;2247;42.666;23.292;2023-03-20T01:41:24;94650.44;;;11.61;51.22
4469;BME280;2247;42.666;23.292;2023-03-20T01:43:53;94655.16;;;11.64;50.63
4469;BME280;2247;42.666;23.292;2023-03-20T01:46:24;94663.06;;;11.64;50.97
4469;BME280;2247;42.666;23.292;2023-03-20T01:49:00;94659.38;;;11.65;50.75
4469;BME280;2247;42.666;23.292;2023-03-20T01:51:28;94658.84;;;11.63;49.32
4469;BME280;2247;42.666;23.292;2023-03-20T01:53:59;94649.41;;;11.52;50.93
4469;BME280;2247;42.666;23.292;2023-03-20T01:56:29;94663.06;;;11.64;50.51
4469;BME280;2247;42.666;23.292;2023-03-20T01:59:02;94646.47;;;11.58;51.18
4469;BME280;2247;42.666;23.292;2023-03-20T02:01:32;94665.72;;;11.59;50.96
4469;BME280;2247;42.666;23.292;2023-03-20T02:04:01;94657.03;;;11.58;50.74
4469;BME280;2247;42.666;23.292;2023-03-20T02:06:29;94657.31;;;11.52;49.29
4469;BME280;2247;42.666;23.292;2023-03-20T02:08:56;94657.38;;;11.21;50.85
4469;BME280;2247;42.666;23.292;2023-03-20T02:11:23;94630.00;;;11.07;51.36
4469;BME280;2247;42.666;23.292;2023-03-20T02:13:53;94653.47;;;11.03;51.47
4469;BME280;2247;42.666;23.292;2023-03-20T02:16:22;94654.53;;;11.02;51.92
4469;BME280;2247;42.666;23.292;2023-03-20T02:18:51;94650.84;;;11.03;50.25
4469;BME280;2247;42.666;23.292;2023-03-20T02:24:48;94651.13;;;10.97;51.96
4469;BME280;2247;42.666;23.292;2023-03-20T02:27:23;94654.28;;;11.04;51.47
4469;BME280;2247;42.666;23.292;2023-03-20T02:30:17;94655.31;;;11.13;51.93
4469;BME280;2247;42.666;23.292;2023-03-20T02:36:18;94664.22;;;11.27;51.84
4469;BME280;2247;42.666;23.292;2023-03-20T02:39:07;94661.88;;;11.26;51.61
4469;BME280;2247;42.666;23.292;2023-03-20T02:41:38;94650.53;;;11.25;52.00
4469;BME280;2247;42.666;23.292;2023-03-20T02:44:13;94616.81;;;11.07;51.25
4469;BME280;2247;42.666;23.292;2023-03-20T02:46:46;94652.09;;;11.31;51.30
4469;BME280;2247;42.666;23.292;2023-03-20T02:49:27;94640.78;;;11.26;51.52
4469;BME280;2247;42.666;23.292;2023-03-20T02:52:00;94642.88;;;11.24;51.57
4469;BME280;2247;42.666;23.292;2023-03-20T02:54:38;94643.13;;;11.27;51.29
4469;BME280;2247;42.666;23.292;2023-03-20T02:57:15;94646.84;;;11.21;51.68
4469;BME280;2247;42.666;23.292;2023-03-20T02:59:50;94639.22;;;11.20;51.05
4469;BME280;2247;42.666;23.292;2023-03-20T03:02:25;94643.97;;;11.18;51.33
4469;BME280;2247;42.666;23.292;2023-03-20T03:04:58;94643.19;;;11.12;51.29
4469;BME280;2247;42.666;23.292;2023-03-20T03:07:29;94637.91;;;11.12;51.13
4469;BME280;2247;42.666;23.292;2023-03-20T03:10:01;94643.47;;;11.00;51.52
4469;BME280;2247;42.666;23.292;2023-03-20T03:12:32;94645.28;;;11.00;51.91
4469;BME280;2247;42.666;23.292;2023-03-20T03:15:03;94655.31;;;11.03;51.36
4469;BME280;2247;42.666;23.292;2023-03-20T03:17:34;94639.50;;;11.03;51.55
4469;BME280;2247;42.666;23.292;2023-03-20T03:20:07;94633.41;;;11.07;51.22
4469;BME280;2247;42.666;23.292;2023-03-20T03:22:35;94638.72;;;11.02;51.83
4469;BME280;2247;42.666;23.292;2023-03-20T03:25:04;94643.22;;;10.97;51.14
4469;BME280;2247;42.666;23.292;2023-03-20T03:27:34;94639.00;;;10.96;51.85
4469;BME280;2247;42.666;23.292;2023-03-20T03:30:06;94639.22;;;10.99;51.31
4469;BME280;2247;42.666;23.292;2023-03-20T03:32:36;94639.00;;;10.86;51.47
4469;BME280;2247;42.666;23.292;2023-03-20T03:35:12;94648.78;;;10.85;52.26
4469;BME280;2247;42.666;23.292;2023-03-20T03:37:47;94644.28;;;10.91;51.92
4469;BME280;2247;42.666;23.292;2023-03-20T03:40:27;94647.69;;;10.86;52.78
4469;BME280;2247;42.666;23.292;2023-03-20T03:43:00;94646.13;;;10.90;52.05
4469;BME280;2247;42.666;23.292;2023-03-20T03:45:30;94650.59;;;10.90;52.06
4469;BME280;2247;42.666;23.292;2023-03-20T03:48:02;94631.09;;;10.86;52.00
4469;BME280;2247;42.666;23.292;2023-03-20T03:50:34;94639.00;;;10.91;52.45
4469;BME280;2247;42.666;23.292;2023-03-20T03:53:05;94626.84;;;10.95;52.01
4469;BME280;2247;42.666;23.292;2023-03-20T03:55:38;94625.28;;;10.99;52.31
4469;BME280;2247;42.666;23.292;2023-03-20T03:58:10;94630.28;;;11.00;51.29
4469;BME280;2247;42.666;23.292;2023-03-20T04:00:40;94615.81;;;10.88;51.58
4469;BME280;2247;42.666;23.292;2023-03-20T04:03:09;94614.75;;;10.74;51.35
4469;BME280;2247;42.666;23.292;2023-03-20T04:05:40;94625.34;;;10.63;52.12
4469;BME280;2247;42.666;23.292;2023-03-20T04:08:08;94624.25;;;10.59;51.63
4469;BME280;2247;42.666;23.292;2023-03-20T04:10:36;94623.47;;;10.54;52.26
4469;BME280;2247;42.666;23.292;2023-03-20T04:13:03;94624.25;;;10.59;52.12
4469;BME280;2247;42.666;23.292;2023-03-20T04:15:30;94614.78;;;10.28;51.18
4469;BME280;2247;42.666;23.292;2023-03-20T04:17:57;94600.53;;;10.14;52.30
4469;BME280;2247;42.666;23.292;2023-03-20T04:20:24;94617.44;;;10.28;52.22
4469;BME280;2247;42.666;23.292;2023-03-20T04:22:50;94611.56;;;10.11;51.75
4469;BME280;2247;42.666;23.292;2023-03-20T04:25:20;94622.09;;;10.01;52.18
4469;BME280;2247;42.666;23.292;2023-03-20T04:27:49;94605.22;;;9.97;52.18
4469;BME280;2247;42.666;23.292;2023-03-20T04:30:17;94605.69;;;9.68;52.15
4469;BME280;2247;42.666;23.292;2023-03-20T04:32:44;94619.63;;;9.59;52.10
4469;BME280;2247;42.666;23.292;2023-03-20T04:35:10;94624.06;;;9.48;52.40
4469;BME280;2247;42.666;23.292;2023-03-20T04:37:37;94632.22;;;9.46;52.27
4469;BME280;2247;42.666;23.292;2023-03-20T04:40:05;94621.97;;;9.50;52.80
4469;BME280;2247;42.666;23.292;2023-03-20T04:42:32;94635.69;;;9.62;53.17
4469;BME280;2247;42.666;23.292;2023-03-20T04:45:01;94633.88;;;9.73;54.71
4469;BME280;2247;42.666;23.292;2023-03-20T04:47:27;94638.66;;;9.96;54.89
4469;BME280;2247;42.666;23.292;2023-03-20T04:49:54;94643.75;;;10.18;53.76
4469;BME280;2247;42.666;23.292;2023-03-20T04:52:22;94648.50;;;10.41;53.29
4469;BME280;2247;42.666;23.292;2023-03-20T04:54:48;94649.03;;;10.53;53.51
4469;BME280;2247;42.666;23.292;2023-03-20T04:57:16;94664.59;;;10.75;52.27
4469;BME280;2247;42.666;23.292;2023-03-20T04:59:43;94652.97;;;10.81;51.61
4469;BME280;2247;42.666;23.292;2023-03-20T05:02:11;94653.22;;;10.95;52.00
4469;BME280;2247;42.666;23.292;2023-03-20T05:04:40;94651.09;;;11.02;51.24
4469;BME280;2247;42.666;23.292;2023-03-20T05:07:06;94651.09;;;11.12;51.07
4469;BME280;2247;42.666;23.292;2023-03-20T05:09:34;94655.84;;;11.10;51.23
4469;BME280;2247;42.666;23.292;2023-03-20T05:12:00;94649.50;;;11.16;52.08
4469;BME280;2247;42.666;23.292;2023-03-20T05:14:28;94652.13;;;11.21;50.90
4469;BME280;2247;42.666;23.292;2023-03-20T05:16:55;94657.91;;;11.28;50.61
4469;BME280;2247;42.666;23.292;2023-03-20T05:19:23;94654.69;;;11.52;50.59
4469;BME280;2247;42.666;23.292;2023-03-20T05:21:50;94645.66;;;11.68;49.92
4469;BME280;2247;42.666;23.292;2023-03-20T05:24:17;94669.63;;;11.81;49.28
4469;BME280;2247;42.666;23.292;2023-03-20T05:26:45;94642.53;;;11.51;49.97
4469;BME280;2247;42.666;23.292;2023-03-20T05:29:12;94657.81;;;11.59;49.81
4469;BME280;2247;42.666;23.292;2023-03-20T05:31:40;94662.84;;;11.60;50.07
4469;BME280;2247;42.666;23.292;2023-03-20T05:34:08;94660.41;;;11.79;52.28
4469;BME280;2247;42.666;23.292;2023-03-20T05:36:36;94662.41;;;12.02;51.20
4469;BME280;2247;42.666;23.292;2023-03-20T05:39:03;94668.59;;;12.27;51.74
4469;BME280;2247;42.666;23.292;2023-03-20T05:41:30;94658.03;;;12.27;49.71
4469;BME280;2247;42.666;23.292;2023-03-20T05:43:58;94657.34;;;12.50;49.90
4469;BME280;2247;42.666;23.292;2023-03-20T05:46:25;94660.78;;;12.84;49.90
4469;BME280;2247;42.666;23.292;2023-03-20T05:48:53;94650.00;;;13.05;50.04
4469;BME280;2247;42.666;23.292;2023-03-20T05:51:21;94667.38;;;13.45;49.29
4469;BME280;2247;42.666;23.292;2023-03-20T05:59:00;94658.28;;;13.74;48.41
4469;BME280;2247;42.666;23.292;2023-03-20T06:03:58;94667.34;;;14.11;46.89
4469;BME280;2247;42.666;23.292;2023-03-20T06:06:25;94657.63;;;14.25;45.77
4469;BME280;2247;42.666;23.292;2023-03-20T06:08:52;94662.88;;;14.30;46.15
4469;BME280;2247;42.666;23.292;2023-03-20T06:11:19;94643.66;;;14.38;45.04
4469;BME280;2247;42.666;23.292;2023-03-20T06:13:48;94655.00;;;14.63;43.68
4469;BME280;2247;42.666;23.292;2023-03-20T06:16:21;94662.50;;;14.74;43.06
4469;BME280;2247;42.666;23.292;2023-03-20T06:18:48;94662.25;;;14.89;41.83
4469;BME280;2247;42.666;23.292;2023-03-20T06:21:15;94668.84;;;14.92;43.93
4469;BME280;2247;42.666;23.292;2023-03-20T06:23:42;94666.91;;;14.97;42.26
4469;BME280;2247;42.666;23.292;2023-03-20T06:26:09;94665.44;;;14.73;43.03
4469;BME280;2247;42.666;23.292;2023-03-20T06:28:36;94664.44;;;14.69;42.99
4469;BME280;2247;42.666;23.292;2023-03-20T06:31:03;94671.63;;;14.49;43.10
4469;BME280;2247;42.666;23.292;2023-03-20T06:33:32;94672.88;;;14.33;43.88
4469;BME280;2247;42.666;23.292;2023-03-20T06:35:59;94674.38;;;14.20;43.60
4469;BME280;2247;42.666;23.292;2023-03-20T06:38:26;94674.47;;;14.15;43.95
4469;BME280;2247;42.666;23.292;2023-03-20T06:40:53;94676.00;;;14.40;44.14
4469;BME280;2247;42.666;23.292;2023-03-20T06:43:20;94679.84;;;14.67;44.46
4469;BME280;2247;42.666;23.292;2023-03-20T06:45:47;94670.66;;;14.78;44.58
4469;BME280;2247;42.666;23.292;2023-03-20T06:48:14;94673.16;;;14.88;43.40
4469;BME280;2247;42.666;23.292;2023-03-20T06:50:47;94665.94;;;15.07;43.11
4469;BME280;2247;42.666;23.292;2023-03-20T06:53:15;94663.59;;;15.19;42.88
4469;BME280;2247;42.666;23.292;2023-03-20T06:55:46;94662.75;;;15.37;42.42
4469;BME280;2247;42.666;23.292;2023-03-20T06:58:13;94665.00;;;15.44;44.55
4469;BME280;2247;42.666;23.292;2023-03-20T07:00:42;94665.94;;;15.53;42.65
4469;BME280;2247;42.666;23.292;2023-03-20T07:03:13;94666.56;;;15.31;41.43
4469;BME280;2247;42.666;23.292;2023-03-20T07:05:41;94658.47;;;15.09;42.47
4469;BME280;2247;42.666;23.292;2023-03-20T07:08:13;94667.34;;;15.18;42.72
4469;BME280;2247;42.666;23.292;2023-03-20T07:10:41;94650.53;;;15.36;42.05
4469;BME280;2247;42.666;23.292;2023-03-20T07:13:11;94661.41;;;15.54;41.72
4469;BME280;2247;42.666;23.292;2023-03-20T07:15:39;94652.06;;;15.70;41.98
4469;BME280;2247;42.666;23.292;2023-03-20T07:18:07;94652.38;;;15.68;42.32
4469;BME280;2247;42.666;23.292;2023-03-20T07:20:35;94656.09;;;15.81;42.06
4469;BME280;2247;42.666;23.292;2023-03-20T07:23:02;94650.53;;;16.05;41.14
4469;BME280;2247;42.666;23.292;2023-03-20T07:25:32;94653.78;;;16.15;40.07
4469;BME280;2247;42.666;23.292;2023-03-20T07:28:00;94641.22;;;15.94;40.00
4469;BME280;2247;42.666;23.292;2023-03-20T07:30:31;94654.00;;;16.05;40.77
4469;BME280;2247;42.666;23.292;2023-03-20T07:32:59;94655.84;;;16.19;41.34
4469;BME280;2247;42.666;23.292;2023-03-20T07:35:28;94649.22;;;16.30;41.61
4469;BME280;2247;42.666;23.292;2023-03-20T07:37:57;94648.75;;;16.28;40.07
4469;BME280;2247;42.666;23.292;2023-03-20T07:40:24;94658.28;;;16.29;40.30
4469;BME280;2247;42.666;23.292;2023-03-20T07:42:53;94651.59;;;16.31;40.19
4469;BME280;2247;42.666;23.292;2023-03-20T07:45:19;94647.78;;;16.46;39.65
4469;BME280;2247;42.666;23.292;2023-03-20T07:47:46;94655.72;;;16.60;39.12
4469;BME280;2247;42.666;23.292;2023-03-20T07:50:14;94654.38;;;16.62;40.26
4469;BME280;2247;42.666;23.292;2023-03-20T07:52:45;94659.50;;;16.81;39.56
4469;BME280;2247;42.666;23.292;2023-03-20T07:55:12;94657.03;;;16.84;39.09
4469;BME280;2247;42.666;23.292;2023-03-20T07:57:39;94659.88;;;16.88;38.88
4469;BME280;2247;42.666;23.292;2023-03-20T08:00:11;94638.59;;;16.66;39.18
4469;BME280;2247;42.666;23.292;2023-03-20T08:02:39;94653.28;;;16.63;39.40
4469;BME280;2247;42.666;23.292;2023-03-20T08:05:08;94632.59;;;16.60;39.14
4469;BME280;2247;42.666;23.292;2023-03-20T08:07:35;94638.47;;;16.71;39.60
4469;BME280;2247;42.666;23.292;2023-03-20T08:10:04;94634.66;;;16.85;39.27
4469;BME280;2247;42.666;23.292;2023-03-20T08:12:33;94641.44;;;16.91;38.59
4469;BME280;2247;42.666;23.292;2023-03-20T08:15:00;94651.59;;;16.89;39.01
4469;BME280;2247;42.666;23.292;2023-03-20T08:17:29;94638.47;;;16.71;38.95
4469;BME280;2247;42.666;23.292;2023-03-20T08:19:56;94647.19;;;16.63;38.87
4469;BME280;2247;42.666;23.292;2023-03-20T08:22:22;94644.66;;;16.44;39.13
4469;BME280;2247;42.666;23.292;2023-03-20T08:24:49;94652.41;;;16.54;39.73
4469;BME280;2247;42.666;23.292;2023-03-20T08:27:17;94644.72;;;16.66;40.03
4469;BME280;2247;42.666;23.292;2023-03-20T08:29:44;94654.03;;;16.77;38.97
4469;BME280;2247;42.666;23.292;2023-03-20T08:32:11;94648.75;;;16.64;39.25
4469;BME280;2247;42.666;23.292;2023-03-20T08:34:43;94647.41;;;16.52;38.15
4469;BME280;2247;42.666;23.292;2023-03-20T08:37:10;94653.47;;;16.67;38.40
4469;BME280;2247;42.666;23.292;2023-03-20T08:39:47;94651.72;;;16.62;38.69
4469;BME280;2247;42.666;23.292;2023-03-20T08:42:14;94647.56;;;16.56;37.73
4469;BME280;2247;42.666;23.292;2023-03-20T08:44:42;94644.41;;;16.54;37.54
4469;BME280;2247;42.666;23.292;2023-03-20T08:47:09;94643.63;;;16.53;38.25
4469;BME280;2247;42.666;23.292;2023-03-20T08:49:36;94614.53;;;16.35;38.00
4469;BME280;2247;42.666;23.292;2023-03-20T08:52:07;94640.84;;;16.72;38.38
4469;BME280;2247;42.666;23.292;2023-03-20T08:54:34;94645.19;;;16.90;37.59
4469;BME280;2247;42.666;23.292;2023-03-20T08:57:01;94630.38;;;16.76;39.34
4469;BME280;2247;42.666;23.292;2023-03-20T08:59:28;94653.16;;;16.90;38.56
4469;BME280;2247;42.666;23.292;2023-03-20T09:02:13;94646.53;;;16.79;38.12
4469;BME280;2247;42.666;23.292;2023-03-20T09:04:45;94636.84;;;16.83;38.29
4469;BME280;2247;42.666;23.292;2023-03-20T09:07:13;94633.25;;;16.88;38.14
4469;BME280;2247;42.666;23.292;2023-03-20T09:09:40;94633.31;;;16.97;37.47
4469;BME280;2247;42.666;23.292;2023-03-20T09:12:08;94633.88;;;17.07;37.29
4469;BME280;2247;42.666;23.292;2023-03-20T09:14:34;94628.41;;;17.12;37.62
4469;BME280;2247;42.666;23.292;2023-03-20T09:17:02;94626.19;;;17.06;37.42
4469;BME280;2247;42.666;23.292;2023-03-20T09:19:30;94621.50;;;17.11;37.25
4469;BME280;2247;42.666;23.292;2023-03-20T09:21:57;94622.28;;;17.12;37.95
4469;BME280;2247;42.666;23.292;2023-03-20T09:24:26;94617.22;;;17.02;37.86
4469;BME280;2247;42.666;23.292;2023-03-20T09:26:53;94617.56;;;17.09;37.45
4469;BME280;2247;42.666;23.292;2023-03-20T09:29:20;94622.16;;;17.17;37.64
4469;BME280;2247;42.666;23.292;2023-03-20T09:31:48;94612.13;;;17.14;37.98
4469;BME280;2247;42.666;23.292;2023-03-20T09:34:15;94599.06;;;17.04;37.69
4469;BME280;2247;42.666;23.292;2023-03-20T09:36:42;94592.69;;;17.13;37.87
4469;BME280;2247;42.666;23.292;2023-03-20T09:39:10;94596.06;;;17.36;37.15
4469;BME280;2247;42.666;23.292;2023-03-20T09:41:39;94600.78;;;17.39;36.58
4469;BME280;2247;42.666;23.292;2023-03-20T09:44:11;94593.69;;;17.26;37.50
4469;BME280;2247;42.666;23.292;2023-03-20T09:46:55;94594.63;;;17.21;38.10
4469;BME280;2247;42.666;23.292;2023-03-20T09:49:38;94573.41;;;17.08;37.39
4469;BME280;2247;42.666;23.292;2023-03-20T09:52:16;94566.41;;;17.29;37.51
4469;BME280;2247;42.666;23.292;2023-03-20T09:54:48;94565.84;;;17.41;37.50
4469;BME280;2247;42.666;23.292;2023-03-20T09:57:20;94556.72;;;17.33;37.26
4469;BME280;2247;42.666;23.292;2023-03-20T09:59:52;94549.22;;;17.44;36.93
4469;BME280;2247;42.666;23.292;2023-03-20T10:02:29;94548.44;;;17.43;37.09
4469;BME280;2247;42.666;23.292;2023-03-20T10:05:00;94534.59;;;17.24;37.74
4469;BME280;2247;42.666;23.292;2023-03-20T10:07:28;94532.47;;;17.43;37.52
4469;BME280;2247;42.666;23.292;2023-03-20T10:09:55;94531.25;;;17.58;37.44
4469;BME280;2247;42.666;23.292;2023-03-20T10:12:46;94532.09;;;17.67;37.18
4469;BME280;2247;42.666;23.292;2023-03-20T10:15:19;94531.78;;;17.77;36.92
4469;BME280;2247;42.666;23.292;2023-03-20T10:17:55;94539.63;;;17.82;36.74
4469;BME280;2247;42.666;23.292;2023-03-20T10:20:32;94528.81;;;17.87;36.83
4469;BME280;2247;42.666;23.292;2023-03-20T10:23:06;94512.81;;;17.70;36.72
4469;BME280;2247;42.666;23.292;2023-03-20T10:25:36;94515.78;;;17.86;36.75
4469;BME280;2247;42.666;23.292;2023-03-20T10:28:12;94524.88;;;17.85;37.02
4469;BME280;2247;42.666;23.292;2023-03-20T10:30:52;94516.59;;;17.95;36.46
4469;BME280;2247;42.666;23.292;2023-03-20T10:33:36;94510.31;;;17.91;36.73
4469;BME280;2247;42.666;23.292;2023-03-20T10:36:16;94513.63;;;17.96;36.61
4469;BME280;2247;42.666;23.292;2023-03-20T10:38:54;94510.31;;;17.91;36.92
4469;BME280;2247;42.666;23.292;2023-03-20T10:41:28;94507.19;;;17.97;36.88
4469;BME280;2247;42.666;23.292;2023-03-20T10:44:00;94501.38;;;18.04;37.07
4469;BME280;2247;42.666;23.292;2023-03-20T10:46:30;94499.81;;;18.12;36.80
4469;BME280;2247;42.666;23.292;2023-03-20T10:49:02;94496.97;;;18.17;36.63
4469;BME280;2247;42.666;23.292;2023-03-20T10:51:37;94488.81;;;18.30;35.99
4469;BME280;2247;42.666;23.292;2023-03-20T10:54:12;94480.31;;;18.37;35.90
4469;BME280;2247;42.666;23.292;2023-03-20T10:56:46;94488.44;;;18.40;35.83
4469;BME280;2247;42.666;23.292;2023-03-20T10:59:21;94482.78;;;18.50;35.76
4469;BME280;2247;42.666;23.292;2023-03-20T11:01:48;94475.44;;;18.56;35.21
4469;BME280;2247;42.666;23.292;2023-03-20T11:04:15;94476.69;;;18.59;35.46
4469;BME280;2247;42.666;23.292;2023-03-20T11:06:47;94480.75;;;18.56;35.24
4469;BME280;2247;42.666;23.292;2023-03-20T11:09:19;94455.31;;;18.50;35.28
4469;BME280;2247;42.666;23.292;2023-03-20T11:11:47;94463.81;;;18.52;34.99
4469;BME280;2247;42.666;23.292;2023-03-20T11:14:20;94458.13;;;18.71;34.81
4469;BME280;2247;42.666;23.292;2023-03-20T11:16:48;94454.03;;;18.73;35.04
4469;BME280;2247;42.666;23.292;2023-03-20T11:19:18;94449.00;;;18.72;34.68
4469;BME280;2247;42.666;23.292;2023-03-20T11:21:48;94452.78;;;18.71;33.64
4469;BME280;2247;42.666;23.292;2023-03-20T11:24:25;94447.47;;;18.62;33.51
4469;BME280;2247;42.666;23.292;2023-03-20T11:26:52;94437.81;;;18.78;33.61
4469;BME280;2247;42.666;23.292;2023-03-20T11:29:28;94436.19;;;18.95;33.67
4469;BME280;2247;42.666;23.292;2023-03-20T11:32:03;94428.63;;;18.97;33.31
4469;BME280;2247;42.666;23.292;2023-03-20T11:34:32;94430.63;;;19.08;33.63
4469;BME280;2247;42.666;23.292;2023-03-20T11:37:06;94422.53;;;19.17;32.15
4469;BME280;2247;42.666;23.292;2023-03-20T11:39:33;94395.44;;;19.06;32.15
4469;BME280;2247;42.666;23.292;2023-03-20T11:42:02;94395.78;;;18.96;32.22
4469;BME280;2247;42.666;23.292;2023-03-20T11:44:32;94413.31;;;19.14;32.07
4469;BME280;2247;42.666;23.292;2023-03-20T11:47:02;94410.00;;;19.09;32.09
4469;BME280;2247;42.666;23.292;2023-03-20T11:49:30;94389.09;;;19.11;32.29
4469;BME280;2247;42.666;23.292;2023-03-20T11:52:00;94387.13;;;19.28;33.39
4469;BME280;2247;42.666;23.292;2023-03-20T11:54:29;94392.38;;;19.37;32.71
4469;BME280;2247;42.666;23.292;2023-03-20T11:56:57;94392.63;;;19.53;33.65
4469;BME280;2247;42.666;23.292;2023-03-20T11:59:28;94371.56;;;19.51;32.28
4469;BME280;2247;42.666;23.292;2023-03-20T12:01:58;94376.63;;;19.65;31.59
4469;BME280;2247;42.666;23.292;2023-03-20T12:04:27;94375.84;;;19.64;30.83
4469;BME280;2247;42.666;23.292;2023-03-20T12:06:56;94356.97;;;19.49;30.78
4469;BME280;2247;42.666;23.292;2023-03-20T12:09:31;94367.19;;;19.67;30.04
4469;BME280;2247;42.666;23.292;2023-03-20T12:12:01;94362.75;;;19.51;30.52
4469;BME280;2247;42.666;23.292;2023-03-20T12:14:37;94361.44;;;19.57;30.51
4469;BME280;2247;42.666;23.292;2023-03-20T12:17:31;94359.75;;;19.52;30.31
4469;BME280;2247;42.666;23.292;2023-03-20T12:20:05;94359.22;;;19.59;30.37
4469;BME280;2247;42.666;23.292;2023-03-20T12:22:36;94351.59;;;19.70;30.55
4469;BME280;2247;42.666;23.292;2023-03-20T12:25:15;94351.56;;;19.90;30.48
4469;BME280;2247;42.666;23.292;2023-03-20T12:27:46;94333.63;;;19.91;30.02
4469;BME280;2247;42.666;23.292;2023-03-20T12:30:25;94325.69;;;19.82;30.07
4469;BME280;2247;42.666;23.292;2023-03-20T12:33:03;94345.78;;;20.00;29.67
4469;BME280;2247;42.666;23.292;2023-03-20T12:35:35;94337.00;;;20.12;29.92
4469;BME280;2247;42.666;23.292;2023-03-20T12:38:12;94339.38;;;20.26;29.69
4469;BME280;2247;42.666;23.292;2023-03-20T12:40:43;94320.06;;;20.20;29.36
4469;BME280;2247;42.666;23.292;2023-03-20T12:43:13;94326.69;;;20.35;28.70
4469;BME280;2247;42.666;23.292;2023-03-20T12:45:45;94329.69;;;20.33;28.84
4469;BME280;2247;42.666;23.292;2023-03-20T12:51:18;94314.66;;;20.41;28.20
4469;BME280;2247;42.666;23.292;2023-03-20T12:53:57;94315.09;;;20.43;27.53
4469;BME280;2247;42.666;23.292;2023-03-20T12:56:41;94303.50;;;20.39;27.38
4469;BME280;2247;42.666;23.292;2023-03-20T12:59:16;94308.41;;;20.37;27.34
4469;BME280;2247;42.666;23.292;2023-03-20T13:01:50;94278.69;;;20.18;27.91
4469;BME280;2247;42.666;23.292;2023-03-20T13:04:47;94301.06;;;20.46;27.53
4469;BME280;2247;42.666;23.292;2023-03-20T13:07:20;94304.84;;;20.45;27.20
4469;BME280;2247;42.666;23.292;2023-03-20T13:09:54;94292.44;;;20.40;27.50
4469;BME280;2247;42.666;23.292;2023-03-20T13:12:34;94293.44;;;20.48;27.14
4469;BME280;2247;42.666;23.292;2023-03-20T13:15:17;94294.22;;;20.49;27.35
4469;BME280;2247;42.666;23.292;2023-03-20T13:17:50;94282.09;;;20.51;26.71
4469;BME280;2247;42.666;23.292;2023-03-20T13:20:23;94276.03;;;20.54;26.24
4469;BME280;2247;42.666;23.292;2023-03-20T13:23:10;94280.94;;;20.76;25.83
4469;BME280;2247;42.666;23.292;2023-03-20T13:25:53;94280.03;;;20.84;25.97
4469;BME280;2247;42.666;23.292;2023-03-20T13:28:29;94268.88;;;20.82;25.66
4469;BME280;2247;42.666;23.292;2023-03-20T13:31:05;94265.56;;;20.73;25.52
4469;BME280;2247;42.666;23.292;2023-03-20T13:33:49;94264.84;;;20.89;25.63
4469;BME280;2247;42.666;23.292;2023-03-20T13:36:26;94262.72;;;20.82;25.94
4469;BME280;2247;42.666;23.292;2023-03-20T13:39:02;94265.53;;;20.86;26.03
4469;BME280;2247;42.666;23.292;2023-03-20T13:41:34;94258.06;;;20.79;25.68
4469;BME280;2247;42.666;23.292;2023-03-20T13:44:05;94261.28;;;20.84;26.02
4469;BME280;2247;42.666;23.292;2023-03-20T13:46:40;94242.44;;;20.81;26.05
4469;BME280;2247;42.666;23.292;2023-03-20T13:49:14;94248.19;;;20.95;25.87